sensor_id;sensor_type;location;lat;lon;timestamp;P1;durP1;ratioP1;P2;durP2;ratioP2
9665;SDS011;4871;52.004;5.924;2022-11-12T00:00:00;8.70;;;5.90;;
9665;SDS011;4871;52.004;5.924;2022-11-12T00:01:07;8.70;;;5.90;;
9665;SDS011;4871;52.004;5.924;2022-11-12T00:02:00;8.70;;;5.90;;
9665;SDS011;4871;52.004;5.924;2022-11-12T00:03:06;8.70;;;5.90;;
9665;SDS011;4871;52.004;5.924;2022-11-12T00:04:00;8.70;;;5.90;;
9665;SDS011;4871;52.004;5.924;2022-11-12T00:05:00;8.70;;;5.90;;
9665;SDS011;4871;52.004;5.924;2022-11-12T00:06:00;8.70;;;5.90;;
9665;SDS011;4871;52.004;5.924;2022-11-12T00:07:00;8.70;;;5.90;;
9665;SDS011;4871;52.004;5.924;2022-11-12T00:08:00;8.70;;;5.90;;
9665;SDS011;4871;52.004;5.924;2022-11-12T00:09:07;8.70;;;5.90;;
9665;SDS011;4871;52.004;5.924;2022-11-12T00:10:00;8.70;;;5.90;;
9665;SDS011;4871;52.004;5.924;2022-11-12T00:11:00;8.70;;;5.90;;
9665;SDS011;4871;52.004;5.924;2022-11-12T00:12:06;8.70;;;5.90;;
9665;SDS011;4871;52.004;5.924;2022-11-12T00:13:00;8.70;;;5.90;;
9665;SDS011;4871;52.004;5.924;2022-11-12T00:14:00;8.70;;;5.90;;
9665;SDS011;4871;52.004;5.924;2022-11-12T00:15:00;9.40;;;6.30;;
9665;SDS011;4871;52.004;5.924;2022-11-12T00:16:00;9.40;;;6.30;;
9665;SDS011;4871;52.004;5.924;2022-11-12T00:17:00;9.40;;;6.30;;
9665;SDS011;4871;52.004;5.924;2022-11-12T00:18:00;9.40;;;6.30;;
9665;SDS011;4871;52.004;5.924;2022-11-12T00:19:00;9.40;;;6.30;;
9665;SDS011;4871;52.004;5.924;2022-11-12T00:20:00;9.40;;;6.30;;
9665;SDS011;4871;52.004;5.924;2022-11-12T00:21:00;9.40;;;6.30;;
9665;SDS011;4871;52.004;5.924;2022-11-12T00:22:07;9.40;;;6.30;;
9665;SDS011;4871;52.004;5.924;2022-11-12T00:23:00;9.40;;;6.30;;
9665;SDS011;4871;52.004;5.924;2022-11-12T00:24:00;9.40;;;6.30;;
9665;SDS011;4871;52.004;5.924;2022-11-12T00:25:00;9.40;;;6.30;;
9665;SDS011;4871;52.004;5.924;2022-11-12T00:26:00;9.40;;;6.30;;
9665;SDS011;4871;52.004;5.924;2022-11-12T00:27:00;9.40;;;6.30;;
9665;SDS011;4871;52.004;5.924;2022-11-12T00:28:00;9.40;;;6.30;;
9665;SDS011;4871;52.004;5.924;2022-11-12T00:29:00;9.40;;;6.30;;
9665;SDS011;4871;52.004;5.924;2022-11-12T00:30:00;9.40;;;6.30;;
9665;SDS011;4871;52.004;5.924;2022-11-12T00:31:05;9.40;;;6.30;;
9665;SDS011;4871;52.004;5.924;2022-11-12T00:32:00;9.40;;;6.30;;
9665;SDS011;4871;52.004;5.924;2022-11-12T00:33:00;9.40;;;6.30;;
9665;SDS011;4871;52.004;5.924;2022-11-12T00:34:00;9.40;;;6.30;;
9665;SDS011;4871;52.004;5.924;2022-11-12T00:35:00;9.40;;;6.30;;
9665;SDS011;4871;52.004;5.924;2022-11-12T00:36:00;9.40;;;6.30;;
9665;SDS011;4871;52.004;5.924;2022-11-12T00:37:00;9.40;;;6.30;;
9665;SDS011;4871;52.004;5.924;2022-11-12T00:38:00;9.40;;;6.30;;
9665;SDS011;4871;52.004;5.924;2022-11-12T00:39:00;9.40;;;6.30;;
9665;SDS011;4871;52.004;5.924;2022-11-12T00:40:06;9.40;;;6.30;;
9665;SDS011;4871;52.004;5.924;2022-11-12T00:41:00;9.40;;;6.30;;
9665;SDS011;4871;52.004;5.924;2022-11-12T00:42:00;9.40;;;6.30;;
9665;SDS011;4871;52.004;5.924;2022-11-12T00:43:00;9.40;;;6.30;;
9665;SDS011;4871;52.004;5.924;2022-11-12T00:44:00;9.40;;;6.30;;
9665;SDS011;4871;52.004;5.924;2022-11-12T00:45:00;5.50;;;4.40;;
9665;SDS011;4871;52.004;5.924;2022-11-12T00:46:00;5.50;;;4.40;;
9665;SDS011;4871;52.004;5.924;2022-11-12T00:47:00;5.50;;;4.40;;
9665;SDS011;4871;52.004;5.924;2022-11-12T00:48:00;5.50;;;4.40;;
9665;SDS011;4871;52.004;5.924;2022-11-12T00:49:00;5.50;;;4.40;;
9665;SDS011;4871;52.004;5.924;2022-11-12T00:50:00;5.50;;;4.40;;
9665;SDS011;4871;52.004;5.924;2022-11-12T00:51:00;5.50;;;4.40;;
9665;SDS011;4871;52.004;5.924;2022-11-12T00:52:06;5.50;;;4.40;;
9665;SDS011;4871;52.004;5.924;2022-11-12T00:53:00;5.50;;;4.40;;
9665;SDS011;4871;52.004;5.924;2022-11-12T00:54:00;5.50;;;4.40;;
9665;SDS011;4871;52.004;5.924;2022-11-12T00:55:00;5.50;;;4.40;;
9665;SDS011;4871;52.004;5.924;2022-11-12T00:56:01;5.50;;;4.40;;
9665;SDS011;4871;52.004;5.924;2022-11-12T00:57:00;5.50;;;4.40;;
9665;SDS011;4871;52.004;5.924;2022-11-12T00:58:00;5.50;;;4.40;;
9665;SDS011;4871;52.004;5.924;2022-11-12T00:59:00;5.50;;;4.40;;
9665;SDS011;4871;52.004;5.924;2022-11-12T01:00:00;5.50;;;4.40;;
9665;SDS011;4871;52.004;5.924;2022-11-12T01:01:04;5.50;;;4.40;;
9665;SDS011;4871;52.004;5.924;2022-11-12T01:02:00;5.50;;;4.40;;
9665;SDS011;4871;52.004;5.924;2022-11-12T01:03:00;5.50;;;4.40;;
9665;SDS011;4871;52.004;5.924;2022-11-12T01:04:00;5.50;;;4.40;;
9665;SDS011;4871;52.004;5.924;2022-11-12T01:05:00;5.50;;;4.40;;
9665;SDS011;4871;52.004;5.924;2022-11-12T01:06:00;5.50;;;4.40;;
9665;SDS011;4871;52.004;5.924;2022-11-12T01:07:00;5.50;;;4.40;;
9665;SDS011;4871;52.004;5.924;2022-11-12T01:08:07;5.50;;;4.40;;
9665;SDS011;4871;52.004;5.924;2022-11-12T01:09:00;5.50;;;4.40;;
9665;SDS011;4871;52.004;5.924;2022-11-12T01:10:00;5.50;;;4.40;;
9665;SDS011;4871;52.004;5.924;2022-11-12T01:12:00;5.50;;;4.40;;
9665;SDS011;4871;52.004;5.924;2022-11-12T01:13:00;5.50;;;4.40;;
9665;SDS011;4871;52.004;5.924;2022-11-12T01:14:01;5.50;;;4.40;;
9665;SDS011;4871;52.004;5.924;2022-11-12T01:15:00;7.70;;;5.80;;
9665;SDS011;4871;52.004;5.924;2022-11-12T01:16:04;7.70;;;5.80;;
9665;SDS011;4871;52.004;5.924;2022-11-12T01:17:00;7.70;;;5.80;;
9665;SDS011;4871;52.004;5.924;2022-11-12T01:18:00;7.70;;;5.80;;
9665;SDS011;4871;52.004;5.924;2022-11-12T01:19:00;7.70;;;5.80;;
9665;SDS011;4871;52.004;5.924;2022-11-12T01:20:00;7.70;;;5.80;;
9665;SDS011;4871;52.004;5.924;2022-11-12T01:21:07;7.70;;;5.80;;
9665;SDS011;4871;52.004;5.924;2022-11-12T01:22:00;7.70;;;5.80;;
9665;SDS011;4871;52.004;5.924;2022-11-12T01:23:00;7.70;;;5.80;;
9665;SDS011;4871;52.004;5.924;2022-11-12T01:24:00;7.70;;;5.80;;
9665;SDS011;4871;52.004;5.924;2022-11-12T01:25:00;7.70;;;5.80;;
9665;SDS011;4871;52.004;5.924;2022-11-12T01:26:03;7.70;;;5.80;;
9665;SDS011;4871;52.004;5.924;2022-11-12T01:27:00;7.70;;;5.80;;
9665;SDS011;4871;52.004;5.924;2022-11-12T01:28:00;7.70;;;5.80;;
9665;SDS011;4871;52.004;5.924;2022-11-12T01:29:00;7.70;;;5.80;;
9665;SDS011;4871;52.004;5.924;2022-11-12T01:30:00;7.70;;;5.80;;
9665;SDS011;4871;52.004;5.924;2022-11-12T01:32:00;7.70;;;5.80;;
9665;SDS011;4871;52.004;5.924;2022-11-12T01:33:00;7.70;;;5.80;;
9665;SDS011;4871;52.004;5.924;2022-11-12T01:34:00;7.70;;;5.80;;
9665;SDS011;4871;52.004;5.924;2022-11-12T01:35:00;7.70;;;5.80;;
9665;SDS011;4871;52.004;5.924;2022-11-12T01:36:00;7.70;;;5.80;;
9665;SDS011;4871;52.004;5.924;2022-11-12T01:37:00;7.70;;;5.80;;
9665;SDS011;4871;52.004;5.924;2022-11-12T01:38:00;7.70;;;5.80;;
9665;SDS011;4871;52.004;5.924;2022-11-12T01:39:00;7.70;;;5.80;;
9665;SDS011;4871;52.004;5.924;2022-11-12T01:40:00;7.70;;;5.80;;
9665;SDS011;4871;52.004;5.924;2022-11-12T01:41:00;7.70;;;5.80;;
9665;SDS011;4871;52.004;5.924;2022-11-12T01:42:00;7.70;;;5.80;;
9665;SDS011;4871;52.004;5.924;2022-11-12T01:43:11;7.70;;;5.80;;
9665;SDS011;4871;52.004;5.924;2022-11-12T01:44:08;7.70;;;5.80;;
9665;SDS011;4871;52.004;5.924;2022-11-12T01:45:00;6.80;;;5.30;;
9665;SDS011;4871;52.004;5.924;2022-11-12T01:46:00;6.80;;;5.30;;
9665;SDS011;4871;52.004;5.924;2022-11-12T01:47:09;6.80;;;5.30;;
9665;SDS011;4871;52.004;5.924;2022-11-12T01:48:00;6.80;;;5.30;;
9665;SDS011;4871;52.004;5.924;2022-11-12T01:49:01;6.80;;;5.30;;
9665;SDS011;4871;52.004;5.924;2022-11-12T01:50:04;6.80;;;5.30;;
9665;SDS011;4871;52.004;5.924;2022-11-12T01:51:00;6.80;;;5.30;;
9665;SDS011;4871;52.004;5.924;2022-11-12T01:53:01;6.80;;;5.30;;
9665;SDS011;4871;52.004;5.924;2022-11-12T01:54:08;6.80;;;5.30;;
9665;SDS011;4871;52.004;5.924;2022-11-12T01:55:02;6.80;;;5.30;;
9665;SDS011;4871;52.004;5.924;2022-11-12T01:56:00;6.80;;;5.30;;
9665;SDS011;4871;52.004;5.924;2022-11-12T01:57:00;6.80;;;5.30;;
9665;SDS011;4871;52.004;5.924;2022-11-12T01:58:08;6.80;;;5.30;;
9665;SDS011;4871;52.004;5.924;2022-11-12T01:59:01;6.80;;;5.30;;
9665;SDS011;4871;52.004;5.924;2022-11-12T02:00:02;6.80;;;5.30;;
9665;SDS011;4871;52.004;5.924;2022-11-12T02:01:00;6.80;;;5.30;;
9665;SDS011;4871;52.004;5.924;2022-11-12T02:02:00;6.80;;;5.30;;
9665;SDS011;4871;52.004;5.924;2022-11-12T02:03:00;6.80;;;5.30;;
9665;SDS011;4871;52.004;5.924;2022-11-12T02:04:00;6.80;;;5.30;;
9665;SDS011;4871;52.004;5.924;2022-11-12T02:05:00;6.80;;;5.30;;
9665;SDS011;4871;52.004;5.924;2022-11-12T02:06:02;6.80;;;5.30;;
9665;SDS011;4871;52.004;5.924;2022-11-12T02:07:00;6.80;;;5.30;;
9665;SDS011;4871;52.004;5.924;2022-11-12T02:08:00;6.80;;;5.30;;
9665;SDS011;4871;52.004;5.924;2022-11-12T02:09:00;6.80;;;5.30;;
9665;SDS011;4871;52.004;5.924;2022-11-12T02:10:00;6.80;;;5.30;;
9665;SDS011;4871;52.004;5.924;2022-11-12T02:11:16;6.80;;;5.30;;
9665;SDS011;4871;52.004;5.924;2022-11-12T02:12:17;6.80;;;5.30;;
9665;SDS011;4871;52.004;5.924;2022-11-12T02:13:10;6.80;;;5.30;;
9665;SDS011;4871;52.004;5.924;2022-11-12T02:14:07;7.30;;;5.00;;
9665;SDS011;4871;52.004;5.924;2022-11-12T02:15:00;7.30;;;5.00;;
9665;SDS011;4871;52.004;5.924;2022-11-12T02:16:00;7.30;;;5.00;;
9665;SDS011;4871;52.004;5.924;2022-11-12T02:17:00;7.30;;;5.00;;
9665;SDS011;4871;52.004;5.924;2022-11-12T02:18:00;7.30;;;5.00;;
9665;SDS011;4871;52.004;5.924;2022-11-12T02:19:00;7.30;;;5.00;;
9665;SDS011;4871;52.004;5.924;2022-11-12T02:20:00;7.30;;;5.00;;
9665;SDS011;4871;52.004;5.924;2022-11-12T02:21:02;7.30;;;5.00;;
9665;SDS011;4871;52.004;5.924;2022-11-12T02:22:00;7.30;;;5.00;;
9665;SDS011;4871;52.004;5.924;2022-11-12T02:23:00;7.30;;;5.00;;
9665;SDS011;4871;52.004;5.924;2022-11-12T02:24:01;7.30;;;5.00;;
9665;SDS011;4871;52.004;5.924;2022-11-12T02:25:00;7.30;;;5.00;;
9665;SDS011;4871;52.004;5.924;2022-11-12T02:26:00;7.30;;;5.00;;
9665;SDS011;4871;52.004;5.924;2022-11-12T02:27:00;7.30;;;5.00;;
9665;SDS011;4871;52.004;5.924;2022-11-12T02:28:00;7.30;;;5.00;;
9665;SDS011;4871;52.004;5.924;2022-11-12T02:29:00;7.30;;;5.00;;
9665;SDS011;4871;52.004;5.924;2022-11-12T02:30:07;7.30;;;5.00;;
9665;SDS011;4871;52.004;5.924;2022-11-12T02:31:00;7.30;;;5.00;;
9665;SDS011;4871;52.004;5.924;2022-11-12T02:32:07;7.30;;;5.00;;
9665;SDS011;4871;52.004;5.924;2022-11-12T02:33:00;7.30;;;5.00;;
9665;SDS011;4871;52.004;5.924;2022-11-12T02:34:00;7.30;;;5.00;;
9665;SDS011;4871;52.004;5.924;2022-11-12T02:35:00;7.30;;;5.00;;
9665;SDS011;4871;52.004;5.924;2022-11-12T02:36:07;7.30;;;5.00;;
9665;SDS011;4871;52.004;5.924;2022-11-12T02:37:00;7.30;;;5.00;;
9665;SDS011;4871;52.004;5.924;2022-11-12T02:38:07;7.30;;;5.00;;
9665;SDS011;4871;52.004;5.924;2022-11-12T02:39:00;7.30;;;5.00;;
9665;SDS011;4871;52.004;5.924;2022-11-12T02:40:06;7.30;;;5.00;;
9665;SDS011;4871;52.004;5.924;2022-11-12T02:41:00;7.30;;;5.00;;
9665;SDS011;4871;52.004;5.924;2022-11-12T02:42:00;7.30;;;5.00;;
9665;SDS011;4871;52.004;5.924;2022-11-12T02:43:00;7.30;;;5.00;;
9665;SDS011;4871;52.004;5.924;2022-11-12T02:44:07;9.90;;;6.80;;
9665;SDS011;4871;52.004;5.924;2022-11-12T02:45:00;9.90;;;6.80;;
9665;SDS011;4871;52.004;5.924;2022-11-12T02:46:00;9.90;;;6.80;;
9665;SDS011;4871;52.004;5.924;2022-11-12T02:47:00;9.90;;;6.80;;
9665;SDS011;4871;52.004;5.924;2022-11-12T02:48:08;9.90;;;6.80;;
9665;SDS011;4871;52.004;5.924;2022-11-12T02:49:00;9.90;;;6.80;;
9665;SDS011;4871;52.004;5.924;2022-11-12T02:50:00;9.90;;;6.80;;
9665;SDS011;4871;52.004;5.924;2022-11-12T02:51:00;9.90;;;6.80;;
9665;SDS011;4871;52.004;5.924;2022-11-12T02:52:00;9.90;;;6.80;;
9665;SDS011;4871;52.004;5.924;2022-11-12T02:53:00;9.90;;;6.80;;
9665;SDS011;4871;52.004;5.924;2022-11-12T02:54:00;9.90;;;6.80;;
9665;SDS011;4871;52.004;5.924;2022-11-12T02:55:00;9.90;;;6.80;;
9665;SDS011;4871;52.004;5.924;2022-11-12T02:56:00;9.90;;;6.80;;
9665;SDS011;4871;52.004;5.924;2022-11-12T02:57:00;9.90;;;6.80;;
9665;SDS011;4871;52.004;5.924;2022-11-12T02:58:00;9.90;;;6.80;;
9665;SDS011;4871;52.004;5.924;2022-11-12T02:59:00;9.90;;;6.80;;
9665;SDS011;4871;52.004;5.924;2022-11-12T03:00:00;9.90;;;6.80;;
9665;SDS011;4871;52.004;5.924;2022-11-12T03:01:00;9.90;;;6.80;;
9665;SDS011;4871;52.004;5.924;2022-11-12T03:02:00;9.90;;;6.80;;
9665;SDS011;4871;52.004;5.924;2022-11-12T03:03:00;9.90;;;6.80;;
9665;SDS011;4871;52.004;5.924;2022-11-12T03:04:00;9.90;;;6.80;;
9665;SDS011;4871;52.004;5.924;2022-11-12T03:05:00;9.90;;;6.80;;
9665;SDS011;4871;52.004;5.924;2022-11-12T03:06:00;9.90;;;6.80;;
9665;SDS011;4871;52.004;5.924;2022-11-12T03:07:00;9.90;;;6.80;;
9665;SDS011;4871;52.004;5.924;2022-11-12T03:08:01;9.90;;;6.80;;
9665;SDS011;4871;52.004;5.924;2022-11-12T03:09:00;9.90;;;6.80;;
9665;SDS011;4871;52.004;5.924;2022-11-12T03:10:00;9.90;;;6.80;;
9665;SDS011;4871;52.004;5.924;2022-11-12T03:11:04;9.90;;;6.80;;
9665;SDS011;4871;52.004;5.924;2022-11-12T03:12:07;9.90;;;6.80;;
9665;SDS011;4871;52.004;5.924;2022-11-12T03:13:00;9.90;;;6.80;;
9665;SDS011;4871;52.004;5.924;2022-11-12T03:14:07;6.10;;;4.80;;
9665;SDS011;4871;52.004;5.924;2022-11-12T03:15:00;6.10;;;4.80;;
9665;SDS011;4871;52.004;5.924;2022-11-12T03:16:00;6.10;;;4.80;;
9665;SDS011;4871;52.004;5.924;2022-11-12T03:17:00;6.10;;;4.80;;
9665;SDS011;4871;52.004;5.924;2022-11-12T03:18:00;6.10;;;4.80;;
9665;SDS011;4871;52.004;5.924;2022-11-12T03:19:00;6.10;;;4.80;;
9665;SDS011;4871;52.004;5.924;2022-11-12T03:20:07;6.10;;;4.80;;
9665;SDS011;4871;52.004;5.924;2022-11-12T03:21:00;6.10;;;4.80;;
9665;SDS011;4871;52.004;5.924;2022-11-12T03:22:00;6.10;;;4.80;;
9665;SDS011;4871;52.004;5.924;2022-11-12T03:23:02;6.10;;;4.80;;
9665;SDS011;4871;52.004;5.924;2022-11-12T03:24:00;6.10;;;4.80;;
9665;SDS011;4871;52.004;5.924;2022-11-12T03:25:00;6.10;;;4.80;;
9665;SDS011;4871;52.004;5.924;2022-11-12T03:26:08;6.10;;;4.80;;
9665;SDS011;4871;52.004;5.924;2022-11-12T03:27:00;6.10;;;4.80;;
9665;SDS011;4871;52.004;5.924;2022-11-12T03:28:00;6.10;;;4.80;;
9665;SDS011;4871;52.004;5.924;2022-11-12T03:29:00;6.10;;;4.80;;
9665;SDS011;4871;52.004;5.924;2022-11-12T03:30:07;6.10;;;4.80;;
9665;SDS011;4871;52.004;5.924;2022-11-12T03:31:00;6.10;;;4.80;;
9665;SDS011;4871;52.004;5.924;2022-11-12T03:32:00;6.10;;;4.80;;
9665;SDS011;4871;52.004;5.924;2022-11-12T03:33:00;6.10;;;4.80;;
9665;SDS011;4871;52.004;5.924;2022-11-12T03:34:00;6.10;;;4.80;;
9665;SDS011;4871;52.004;5.924;2022-11-12T03:35:00;6.10;;;4.80;;
9665;SDS011;4871;52.004;5.924;2022-11-12T03:36:00;6.10;;;4.80;;
9665;SDS011;4871;52.004;5.924;2022-11-12T03:37:00;6.10;;;4.80;;
9665;SDS011;4871;52.004;5.924;2022-11-12T03:38:00;6.10;;;4.80;;
9665;SDS011;4871;52.004;5.924;2022-11-12T03:39:00;6.10;;;4.80;;
9665;SDS011;4871;52.004;5.924;2022-11-12T03:40:00;6.10;;;4.80;;
9665;SDS011;4871;52.004;5.924;2022-11-12T03:41:00;6.10;;;4.80;;
9665;SDS011;4871;52.004;5.924;2022-11-12T03:42:07;6.10;;;4.80;;
9665;SDS011;4871;52.004;5.924;2022-11-12T03:43:00;6.10;;;4.80;;
9665;SDS011;4871;52.004;5.924;2022-11-12T03:44:00;7.60;;;5.80;;
9665;SDS011;4871;52.004;5.924;2022-11-12T03:45:00;7.60;;;5.80;;
9665;SDS011;4871;52.004;5.924;2022-11-12T03:46:00;7.60;;;5.80;;
9665;SDS011;4871;52.004;5.924;2022-11-12T03:47:00;7.60;;;5.80;;
9665;SDS011;4871;52.004;5.924;2022-11-12T03:48:00;7.60;;;5.80;;
9665;SDS011;4871;52.004;5.924;2022-11-12T03:49:01;7.60;;;5.80;;
9665;SDS011;4871;52.004;5.924;2022-11-12T03:50:07;7.60;;;5.80;;
9665;SDS011;4871;52.004;5.924;2022-11-12T03:51:00;7.60;;;5.80;;
9665;SDS011;4871;52.004;5.924;2022-11-12T03:52:00;7.60;;;5.80;;
9665;SDS011;4871;52.004;5.924;2022-11-12T03:53:00;7.60;;;5.80;;
9665;SDS011;4871;52.004;5.924;2022-11-12T03:54:00;7.60;;;5.80;;
9665;SDS011;4871;52.004;5.924;2022-11-12T03:55:00;7.60;;;5.80;;
9665;SDS011;4871;52.004;5.924;2022-11-12T03:56:00;7.60;;;5.80;;
9665;SDS011;4871;52.004;5.924;2022-11-12T03:57:00;7.60;;;5.80;;
9665;SDS011;4871;52.004;5.924;2022-11-12T03:58:00;7.60;;;5.80;;
9665;SDS011;4871;52.004;5.924;2022-11-12T03:59:00;7.60;;;5.80;;
9665;SDS011;4871;52.004;5.924;2022-11-12T04:00:00;7.60;;;5.80;;
9665;SDS011;4871;52.004;5.924;2022-11-12T04:01:00;7.60;;;5.80;;
9665;SDS011;4871;52.004;5.924;2022-11-12T04:02:00;7.60;;;5.80;;
9665;SDS011;4871;52.004;5.924;2022-11-12T04:03:00;7.60;;;5.80;;
9665;SDS011;4871;52.004;5.924;2022-11-12T04:04:00;7.60;;;5.80;;
9665;SDS011;4871;52.004;5.924;2022-11-12T04:05:10;7.60;;;5.80;;
9665;SDS011;4871;52.004;5.924;2022-11-12T04:06:10;7.60;;;5.80;;
9665;SDS011;4871;52.004;5.924;2022-11-12T04:07:10;7.60;;;5.80;;
9665;SDS011;4871;52.004;5.924;2022-11-12T04:08:14;7.60;;;5.80;;
9665;SDS011;4871;52.004;5.924;2022-11-12T04:09:00;7.60;;;5.80;;
9665;SDS011;4871;52.004;5.924;2022-11-12T04:10:00;7.60;;;5.80;;
9665;SDS011;4871;52.004;5.924;2022-11-12T04:11:00;7.60;;;5.80;;
9665;SDS011;4871;52.004;5.924;2022-11-12T04:12:10;7.60;;;5.80;;
9665;SDS011;4871;52.004;5.924;2022-11-12T04:13:10;7.60;;;5.80;;
9665;SDS011;4871;52.004;5.924;2022-11-12T04:14:00;7.00;;;4.70;;
9665;SDS011;4871;52.004;5.924;2022-11-12T04:15:00;7.00;;;4.70;;
9665;SDS011;4871;52.004;5.924;2022-11-12T04:16:11;7.00;;;4.70;;
9665;SDS011;4871;52.004;5.924;2022-11-12T04:17:10;7.00;;;4.70;;
9665;SDS011;4871;52.004;5.924;2022-11-12T04:18:10;7.00;;;4.70;;
9665;SDS011;4871;52.004;5.924;2022-11-12T04:19:10;7.00;;;4.70;;
9665;SDS011;4871;52.004;5.924;2022-11-12T04:20:10;7.00;;;4.70;;
9665;SDS011;4871;52.004;5.924;2022-11-12T04:21:10;7.00;;;4.70;;
9665;SDS011;4871;52.004;5.924;2022-11-12T04:22:08;7.00;;;4.70;;
9665;SDS011;4871;52.004;5.924;2022-11-12T04:23:00;7.00;;;4.70;;
9665;SDS011;4871;52.004;5.924;2022-11-12T04:24:00;7.00;;;4.70;;
9665;SDS011;4871;52.004;5.924;2022-11-12T04:25:10;7.00;;;4.70;;
9665;SDS011;4871;52.004;5.924;2022-11-12T04:26:10;7.00;;;4.70;;
9665;SDS011;4871;52.004;5.924;2022-11-12T04:27:00;7.00;;;4.70;;
9665;SDS011;4871;52.004;5.924;2022-11-12T04:28:00;7.00;;;4.70;;
9665;SDS011;4871;52.004;5.924;2022-11-12T04:29:10;7.00;;;4.70;;
9665;SDS011;4871;52.004;5.924;2022-11-12T04:30:10;7.00;;;4.70;;
9665;SDS011;4871;52.004;5.924;2022-11-12T04:31:00;7.00;;;4.70;;
9665;SDS011;4871;52.004;5.924;2022-11-12T04:32:00;7.00;;;4.70;;
9665;SDS011;4871;52.004;5.924;2022-11-12T04:33:00;7.00;;;4.70;;
9665;SDS011;4871;52.004;5.924;2022-11-12T04:34:10;7.00;;;4.70;;
9665;SDS011;4871;52.004;5.924;2022-11-12T04:35:00;7.00;;;4.70;;
9665;SDS011;4871;52.004;5.924;2022-11-12T04:36:00;7.00;;;4.70;;
9665;SDS011;4871;52.004;5.924;2022-11-12T04:37:01;7.00;;;4.70;;
9665;SDS011;4871;52.004;5.924;2022-11-12T04:38:00;7.00;;;4.70;;
9665;SDS011;4871;52.004;5.924;2022-11-12T04:39:00;7.00;;;4.70;;
9665;SDS011;4871;52.004;5.924;2022-11-12T04:40:13;7.00;;;4.70;;
9665;SDS011;4871;52.004;5.924;2022-11-12T04:41:10;7.00;;;4.70;;
9665;SDS011;4871;52.004;5.924;2022-11-12T04:42:10;7.00;;;4.70;;
9665;SDS011;4871;52.004;5.924;2022-11-12T04:43:12;7.00;;;4.70;;
9665;SDS011;4871;52.004;5.924;2022-11-12T04:44:10;5.70;;;4.50;;
9665;SDS011;4871;52.004;5.924;2022-11-12T04:45:01;5.70;;;4.50;;
9665;SDS011;4871;52.004;5.924;2022-11-12T04:46:00;5.70;;;4.50;;
9665;SDS011;4871;52.004;5.924;2022-11-12T04:47:00;5.70;;;4.50;;
9665;SDS011;4871;52.004;5.924;2022-11-12T04:48:00;5.70;;;4.50;;
9665;SDS011;4871;52.004;5.924;2022-11-12T04:49:00;5.70;;;4.50;;
9665;SDS011;4871;52.004;5.924;2022-11-12T04:50:00;5.70;;;4.50;;
9665;SDS011;4871;52.004;5.924;2022-11-12T04:51:02;5.70;;;4.50;;
9665;SDS011;4871;52.004;5.924;2022-11-12T04:52:08;5.70;;;4.50;;
9665;SDS011;4871;52.004;5.924;2022-11-12T04:53:00;5.70;;;4.50;;
9665;SDS011;4871;52.004;5.924;2022-11-12T04:54:00;5.70;;;4.50;;
9665;SDS011;4871;52.004;5.924;2022-11-12T04:55:00;5.70;;;4.50;;
9665;SDS011;4871;52.004;5.924;2022-11-12T04:56:00;5.70;;;4.50;;
9665;SDS011;4871;52.004;5.924;2022-11-12T04:57:00;5.70;;;4.50;;
9665;SDS011;4871;52.004;5.924;2022-11-12T04:58:00;5.70;;;4.50;;
9665;SDS011;4871;52.004;5.924;2022-11-12T04:59:00;5.70;;;4.50;;
9665;SDS011;4871;52.004;5.924;2022-11-12T05:00:00;5.70;;;4.50;;
9665;SDS011;4871;52.004;5.924;2022-11-12T05:01:00;5.70;;;4.50;;
9665;SDS011;4871;52.004;5.924;2022-11-12T05:02:00;5.70;;;4.50;;
9665;SDS011;4871;52.004;5.924;2022-11-12T05:03:00;5.70;;;4.50;;
9665;SDS011;4871;52.004;5.924;2022-11-12T05:04:00;5.70;;;4.50;;
9665;SDS011;4871;52.004;5.924;2022-11-12T05:05:00;5.70;;;4.50;;
9665;SDS011;4871;52.004;5.924;2022-11-12T05:06:00;5.70;;;4.50;;
9665;SDS011;4871;52.004;5.924;2022-11-12T05:07:00;5.70;;;4.50;;
9665;SDS011;4871;52.004;5.924;2022-11-12T05:08:00;5.70;;;4.50;;
9665;SDS011;4871;52.004;5.924;2022-11-12T05:09:00;5.70;;;4.50;;
9665;SDS011;4871;52.004;5.924;2022-11-12T05:10:00;5.70;;;4.50;;
9665;SDS011;4871;52.004;5.924;2022-11-12T05:11:00;5.70;;;4.50;;
9665;SDS011;4871;52.004;5.924;2022-11-12T05:12:00;5.70;;;4.50;;
9665;SDS011;4871;52.004;5.924;2022-11-12T05:13:00;5.70;;;4.50;;
9665;SDS011;4871;52.004;5.924;2022-11-12T05:14:00;7.10;;;5.50;;
9665;SDS011;4871;52.004;5.924;2022-11-12T05:15:00;7.10;;;5.50;;
9665;SDS011;4871;52.004;5.924;2022-11-12T05:16:00;7.10;;;5.50;;
9665;SDS011;4871;52.004;5.924;2022-11-12T05:17:00;7.10;;;5.50;;
9665;SDS011;4871;52.004;5.924;2022-11-12T05:18:00;7.10;;;5.50;;
9665;SDS011;4871;52.004;5.924;2022-11-12T05:19:00;7.10;;;5.50;;
9665;SDS011;4871;52.004;5.924;2022-11-12T05:20:00;7.10;;;5.50;;
9665;SDS011;4871;52.004;5.924;2022-11-12T05:21:10;7.10;;;5.50;;
9665;SDS011;4871;52.004;5.924;2022-11-12T05:22:09;7.10;;;5.50;;
9665;SDS011;4871;52.004;5.924;2022-11-12T05:23:00;7.10;;;5.50;;
9665;SDS011;4871;52.004;5.924;2022-11-12T05:24:00;7.10;;;5.50;;
9665;SDS011;4871;52.004;5.924;2022-11-12T05:25:00;7.10;;;5.50;;
9665;SDS011;4871;52.004;5.924;2022-11-12T05:26:00;7.10;;;5.50;;
9665;SDS011;4871;52.004;5.924;2022-11-12T05:27:00;7.10;;;5.50;;
9665;SDS011;4871;52.004;5.924;2022-11-12T05:28:00;7.10;;;5.50;;
9665;SDS011;4871;52.004;5.924;2022-11-12T05:29:00;7.10;;;5.50;;
9665;SDS011;4871;52.004;5.924;2022-11-12T05:30:00;7.10;;;5.50;;
9665;SDS011;4871;52.004;5.924;2022-11-12T05:31:00;7.10;;;5.50;;
9665;SDS011;4871;52.004;5.924;2022-11-12T05:32:00;7.10;;;5.50;;
9665;SDS011;4871;52.004;5.924;2022-11-12T05:33:00;7.10;;;5.50;;
9665;SDS011;4871;52.004;5.924;2022-11-12T05:34:00;7.10;;;5.50;;
9665;SDS011;4871;52.004;5.924;2022-11-12T05:35:00;7.10;;;5.50;;
9665;SDS011;4871;52.004;5.924;2022-11-12T05:36:00;7.10;;;5.50;;
9665;SDS011;4871;52.004;5.924;2022-11-12T05:37:00;7.10;;;5.50;;
9665;SDS011;4871;52.004;5.924;2022-11-12T05:38:00;7.10;;;5.50;;
9665;SDS011;4871;52.004;5.924;2022-11-12T05:39:00;7.10;;;5.50;;
9665;SDS011;4871;52.004;5.924;2022-11-12T05:40:00;7.10;;;5.50;;
9665;SDS011;4871;52.004;5.924;2022-11-12T05:41:00;7.10;;;5.50;;
9665;SDS011;4871;52.004;5.924;2022-11-12T05:42:00;7.10;;;5.50;;
9665;SDS011;4871;52.004;5.924;2022-11-12T05:43:00;7.10;;;5.50;;
9665;SDS011;4871;52.004;5.924;2022-11-12T05:44:00;6.20;;;4.50;;
9665;SDS011;4871;52.004;5.924;2022-11-12T05:45:00;6.20;;;4.50;;
9665;SDS011;4871;52.004;5.924;2022-11-12T05:46:00;6.20;;;4.50;;
9665;SDS011;4871;52.004;5.924;2022-11-12T05:47:00;6.20;;;4.50;;
9665;SDS011;4871;52.004;5.924;2022-11-12T05:48:00;6.20;;;4.50;;
9665;SDS011;4871;52.004;5.924;2022-11-12T05:49:00;6.20;;;4.50;;
9665;SDS011;4871;52.004;5.924;2022-11-12T05:50:00;6.20;;;4.50;;
9665;SDS011;4871;52.004;5.924;2022-11-12T05:51:00;6.20;;;4.50;;
9665;SDS011;4871;52.004;5.924;2022-11-12T05:52:00;6.20;;;4.50;;
9665;SDS011;4871;52.004;5.924;2022-11-12T05:53:00;6.20;;;4.50;;
9665;SDS011;4871;52.004;5.924;2022-11-12T05:54:00;6.20;;;4.50;;
9665;SDS011;4871;52.004;5.924;2022-11-12T05:55:00;6.20;;;4.50;;
9665;SDS011;4871;52.004;5.924;2022-11-12T05:56:01;6.20;;;4.50;;
9665;SDS011;4871;52.004;5.924;2022-11-12T05:57:00;6.20;;;4.50;;
9665;SDS011;4871;52.004;5.924;2022-11-12T05:58:03;6.20;;;4.50;;
9665;SDS011;4871;52.004;5.924;2022-11-12T05:59:00;6.20;;;4.50;;
9665;SDS011;4871;52.004;5.924;2022-11-12T06:00:00;6.20;;;4.50;;
9665;SDS011;4871;52.004;5.924;2022-11-12T06:01:00;6.20;;;4.50;;
9665;SDS011;4871;52.004;5.924;2022-11-12T06:02:00;6.20;;;4.50;;
9665;SDS011;4871;52.004;5.924;2022-11-12T06:03:00;6.20;;;4.50;;
9665;SDS011;4871;52.004;5.924;2022-11-12T06:04:00;6.20;;;4.50;;
9665;SDS011;4871;52.004;5.924;2022-11-12T06:05:00;6.20;;;4.50;;
9665;SDS011;4871;52.004;5.924;2022-11-12T06:06:00;6.20;;;4.50;;
9665;SDS011;4871;52.004;5.924;2022-11-12T06:07:02;6.20;;;4.50;;
9665;SDS011;4871;52.004;5.924;2022-11-12T06:08:00;6.20;;;4.50;;
9665;SDS011;4871;52.004;5.924;2022-11-12T06:09:00;6.20;;;4.50;;
9665;SDS011;4871;52.004;5.924;2022-11-12T06:10:00;6.20;;;4.50;;
9665;SDS011;4871;52.004;5.924;2022-11-12T06:11:00;6.20;;;4.50;;
9665;SDS011;4871;52.004;5.924;2022-11-12T06:12:07;6.20;;;4.50;;
9665;SDS011;4871;52.004;5.924;2022-11-12T06:13:00;6.20;;;4.50;;
9665;SDS011;4871;52.004;5.924;2022-11-12T06:14:00;8.60;;;5.20;;
9665;SDS011;4871;52.004;5.924;2022-11-12T06:15:00;8.60;;;5.20;;